sensor_id;sensor_type;location;lat;lon;timestamp;P1;durP1;ratioP1;P2;durP2;ratioP2
21158;SDS011;10737;45.436;4.390;2023-03-01T00:02:39;15.90;;;11.52;;
21158;SDS011;10737;45.436;4.390;2023-03-01T00:07:42;16.25;;;11.23;;
21158;SDS011;10737;45.436;4.390;2023-03-01T00:12:46;16.55;;;14.18;;
21158;SDS011;10737;45.436;4.390;2023-03-01T00:17:50;13.75;;;12.00;;
21158;SDS011;10737;45.436;4.390;2023-03-01T00:22:53;14.35;;;12.02;;
21158;SDS011;10737;45.436;4.390;2023-03-01T00:27:57;13.48;;;11.98;;
21158;SDS011;10737;45.436;4.390;2023-03-01T00:33:00;14.70;;;12.85;;
21158;SDS011;10737;45.436;4.390;2023-03-01T00:38:03;13.38;;;11.70;;
21158;SDS011;10737;45.436;4.390;2023-03-01T00:43:09;14.73;;;13.23;;
21158;SDS011;10737;45.436;4.390;2023-03-01T00:48:12;17.58;;;14.00;;
21158;SDS011;10737;45.436;4.390;2023-03-01T00:53:16;13.65;;;12.25;;
21158;SDS011;10737;45.436;4.390;2023-03-01T00:58:20;16.77;;;13.50;;
21158;SDS011;10737;45.436;4.390;2023-03-01T01:03:23;16.00;;;13.05;;
21158;SDS011;10737;45.436;4.390;2023-03-01T01:08:27;16.77;;;13.65;;
21158;SDS011;10737;45.436;4.390;2023-03-01T01:13:31;16.73;;;13.70;;
21158;SDS011;10737;45.436;4.390;2023-03-01T01:18:35;15.82;;;13.40;;
21158;SDS011;10737;45.436;4.390;2023-03-01T01:23:38;16.40;;;14.45;;
21158;SDS011;10737;45.436;4.390;2023-03-01T01:28:43;17.35;;;14.32;;
21158;SDS011;10737;45.436;4.390;2023-03-01T01:33:46;18.00;;;15.02;;
21158;SDS011;10737;45.436;4.390;2023-03-01T01:38:49;20.85;;;15.02;;
21158;SDS011;10737;45.436;4.390;2023-03-01T01:49:15;18.40;;;13.50;;
21158;SDS011;10737;45.436;4.390;2023-03-01T01:54:19;18.00;;;14.57;;
21158;SDS011;10737;45.436;4.390;2023-03-01T01:59:23;19.90;;;15.85;;
21158;SDS011;10737;45.436;4.390;2023-03-01T02:04:28;22.35;;;15.98;;
21158;SDS011;10737;45.436;4.390;2023-03-01T02:09:31;22.05;;;16.38;;
21158;SDS011;10737;45.436;4.390;2023-03-01T02:14:35;21.15;;;16.95;;
21158;SDS011;10737;45.436;4.390;2023-03-01T02:19:43;20.77;;;16.15;;
21158;SDS011;10737;45.436;4.390;2023-03-01T02:24:48;20.02;;;16.30;;
21158;SDS011;10737;45.436;4.390;2023-03-01T02:29:55;22.80;;;19.25;;
21158;SDS011;10737;45.436;4.390;2023-03-01T02:34:58;24.75;;;18.05;;
21158;SDS011;10737;45.436;4.390;2023-03-01T02:40:02;22.58;;;17.15;;
21158;SDS011;10737;45.436;4.390;2023-03-01T02:45:08;22.48;;;17.67;;
21158;SDS011;10737;45.436;4.390;2023-03-01T02:50:15;22.27;;;17.17;;
21158;SDS011;10737;45.436;4.390;2023-03-01T02:55:25;20.98;;;16.55;;
21158;SDS011;10737;45.436;4.390;2023-03-01T03:00:31;19.77;;;17.00;;
21158;SDS011;10737;45.436;4.390;2023-03-01T03:05:36;24.13;;;17.38;;
21158;SDS011;10737;45.436;4.390;2023-03-01T03:10:39;22.85;;;17.48;;
21158;SDS011;10737;45.436;4.390;2023-03-01T03:15:46;20.50;;;16.48;;
21158;SDS011;10737;45.436;4.390;2023-03-01T03:20:50;26.80;;;18.13;;
21158;SDS011;10737;45.436;4.390;2023-03-01T03:25:54;23.77;;;16.95;;
21158;SDS011;10737;45.436;4.390;2023-03-01T03:30:59;24.17;;;17.92;;
21158;SDS011;10737;45.436;4.390;2023-03-01T03:36:05;21.77;;;17.35;;
21158;SDS011;10737;45.436;4.390;2023-03-01T03:41:08;22.13;;;17.70;;
21158;SDS011;10737;45.436;4.390;2023-03-01T03:46:13;20.35;;;16.80;;
21158;SDS011;10737;45.436;4.390;2023-03-01T03:51:17;25.23;;;18.25;;
21158;SDS011;10737;45.436;4.390;2023-03-01T03:56:20;24.58;;;18.48;;
21158;SDS011;10737;45.436;4.390;2023-03-01T04:01:30;27.13;;;17.77;;
21158;SDS011;10737;45.436;4.390;2023-03-01T04:06:33;25.17;;;17.45;;
21158;SDS011;10737;45.436;4.390;2023-03-01T04:11:37;22.17;;;19.52;;
21158;SDS011;10737;45.436;4.390;2023-03-01T04:16:41;24.00;;;18.10;;
21158;SDS011;10737;45.436;4.390;2023-03-01T04:21:44;22.50;;;17.20;;
21158;SDS011;10737;45.436;4.390;2023-03-01T04:26:48;26.15;;;17.65;;
21158;SDS011;10737;45.436;4.390;2023-03-01T04:31:52;21.90;;;17.60;;
21158;SDS011;10737;45.436;4.390;2023-03-01T04:36:55;23.30;;;17.85;;
21158;SDS011;10737;45.436;4.390;2023-03-01T04:41:58;23.67;;;17.67;;
21158;SDS011;10737;45.436;4.390;2023-03-01T04:47:03;25.10;;;17.35;;
21158;SDS011;10737;45.436;4.390;2023-03-01T04:52:06;21.67;;;17.80;;
21158;SDS011;10737;45.436;4.390;2023-03-01T04:57:11;29.95;;;19.25;;
21158;SDS011;10737;45.436;4.390;2023-03-01T05:02:15;20.67;;;17.92;;
21158;SDS011;10737;45.436;4.390;2023-03-01T05:07:18;32.03;;;19.27;;
21158;SDS011;10737;45.436;4.390;2023-03-01T05:12:21;23.30;;;18.23;;
21158;SDS011;10737;45.436;4.390;2023-03-01T05:17:26;21.80;;;17.55;;
21158;SDS011;10737;45.436;4.390;2023-03-01T05:22:29;23.55;;;19.20;;
21158;SDS011;10737;45.436;4.390;2023-03-01T05:27:32;23.70;;;18.70;;
21158;SDS011;10737;45.436;4.390;2023-03-01T05:32:37;26.92;;;18.60;;
21158;SDS011;10737;45.436;4.390;2023-03-01T05:37:40;24.85;;;18.98;;
21158;SDS011;10737;45.436;4.390;2023-03-01T05:42:44;22.92;;;19.00;;
21158;SDS011;10737;45.436;4.390;2023-03-01T05:47:49;22.38;;;17.70;;
21158;SDS011;10737;45.436;4.390;2023-03-01T05:52:56;26.52;;;20.10;;
21158;SDS011;10737;45.436;4.390;2023-03-01T05:58:00;26.50;;;19.80;;
21158;SDS011;10737;45.436;4.390;2023-03-01T06:03:04;23.20;;;18.40;;
21158;SDS011;10737;45.436;4.390;2023-03-01T06:08:08;26.27;;;20.08;;
21158;SDS011;10737;45.436;4.390;2023-03-01T06:13:11;22.88;;;18.95;;
21158;SDS011;10737;45.436;4.390;2023-03-01T06:18:16;26.63;;;19.85;;
21158;SDS011;10737;45.436;4.390;2023-03-01T06:23:19;24.42;;;18.58;;
21158;SDS011;10737;45.436;4.390;2023-03-01T06:28:22;24.70;;;19.77;;
21158;SDS011;10737;45.436;4.390;2023-03-01T06:33:27;25.83;;;19.33;;
21158;SDS011;10737;45.436;4.390;2023-03-01T06:38:30;27.52;;;17.90;;
21158;SDS011;10737;45.436;4.390;2023-03-01T06:43:33;28.15;;;20.30;;
21158;SDS011;10737;45.436;4.390;2023-03-01T06:48:37;27.75;;;21.02;;
21158;SDS011;10737;45.436;4.390;2023-03-01T06:53:40;26.60;;;20.60;;
21158;SDS011;10737;45.436;4.390;2023-03-01T06:58:44;27.77;;;20.63;;
21158;SDS011;10737;45.436;4.390;2023-03-01T07:03:48;32.13;;;22.15;;
21158;SDS011;10737;45.436;4.390;2023-03-01T07:08:51;32.20;;;23.48;;
21158;SDS011;10737;45.436;4.390;2023-03-01T07:13:54;27.67;;;20.67;;
21158;SDS011;10737;45.436;4.390;2023-03-01T07:18:59;29.65;;;20.63;;
21158;SDS011;10737;45.436;4.390;2023-03-01T07:24:02;29.02;;;20.55;;
21158;SDS011;10737;45.436;4.390;2023-03-01T07:29:06;33.65;;;22.33;;
21158;SDS011;10737;45.436;4.390;2023-03-01T07:34:11;27.83;;;20.10;;
21158;SDS011;10737;45.436;4.390;2023-03-01T07:39:14;37.28;;;22.60;;
21158;SDS011;10737;45.436;4.390;2023-03-01T07:44:19;29.77;;;20.67;;
21158;SDS011;10737;45.436;4.390;2023-03-01T07:49:23;29.83;;;20.55;;
21158;SDS011;10737;45.436;4.390;2023-03-01T07:54:28;29.83;;;21.00;;
21158;SDS011;10737;45.436;4.390;2023-03-01T07:59:31;29.48;;;22.13;;
21158;SDS011;10737;45.436;4.390;2023-03-01T08:04:35;32.97;;;21.80;;
21158;SDS011;10737;45.436;4.390;2023-03-01T08:09:39;31.10;;;21.52;;
21158;SDS011;10737;45.436;4.390;2023-03-01T08:14:42;33.63;;;23.48;;
21158;SDS011;10737;45.436;4.390;2023-03-01T08:19:47;29.58;;;21.15;;
21158;SDS011;10737;45.436;4.390;2023-03-01T08:24:50;32.80;;;23.13;;
21158;SDS011;10737;45.436;4.390;2023-03-01T08:29:53;30.60;;;22.55;;
21158;SDS011;10737;45.436;4.390;2023-03-01T08:34:57;38.22;;;24.70;;
21158;SDS011;10737;45.436;4.390;2023-03-01T08:40:00;33.40;;;24.20;;
21158;SDS011;10737;45.436;4.390;2023-03-01T08:45:05;41.95;;;25.65;;
21158;SDS011;10737;45.436;4.390;2023-03-01T08:50:10;31.73;;;22.45;;
21158;SDS011;10737;45.436;4.390;2023-03-01T08:55:13;31.63;;;23.50;;
21158;SDS011;10737;45.436;4.390;2023-03-01T09:00:19;34.58;;;24.80;;
21158;SDS011;10737;45.436;4.390;2023-03-01T09:05:23;38.80;;;26.10;;
21158;SDS011;10737;45.436;4.390;2023-03-01T09:10:27;35.88;;;24.98;;
21158;SDS011;10737;45.436;4.390;2023-03-01T09:15:30;34.60;;;24.05;;
21158;SDS011;10737;45.436;4.390;2023-03-01T09:20:35;38.65;;;25.92;;
21158;SDS011;10737;45.436;4.390;2023-03-01T09:25:38;37.40;;;23.33;;
21158;SDS011;10737;45.436;4.390;2023-03-01T09:30:42;34.50;;;24.60;;
21158;SDS011;10737;45.436;4.390;2023-03-01T09:35:46;35.70;;;22.70;;
21158;SDS011;10737;45.436;4.390;2023-03-01T09:40:49;34.13;;;23.60;;
21158;SDS011;10737;45.436;4.390;2023-03-01T09:45:53;39.78;;;25.67;;
21158;SDS011;10737;45.436;4.390;2023-03-01T09:51:00;35.17;;;24.35;;
21158;SDS011;10737;45.436;4.390;2023-03-01T09:56:11;35.65;;;23.73;;
21158;SDS011;10737;45.436;4.390;2023-03-01T10:01:20;41.38;;;25.48;;
21158;SDS011;10737;45.436;4.390;2023-03-01T10:06:28;34.65;;;25.35;;
21158;SDS011;10737;45.436;4.390;2023-03-01T10:11:36;33.47;;;22.90;;
21158;SDS011;10737;45.436;4.390;2023-03-01T10:16:41;39.05;;;24.88;;
21158;SDS011;10737;45.436;4.390;2023-03-01T10:21:47;53.90;;;33.67;;
21158;SDS011;10737;45.436;4.390;2023-03-01T10:26:54;35.03;;;25.33;;
21158;SDS011;10737;45.436;4.390;2023-03-01T10:31:57;33.50;;;23.00;;
21158;SDS011;10737;45.436;4.390;2023-03-01T10:37:09;36.33;;;24.35;;
21158;SDS011;10737;45.436;4.390;2023-03-01T10:42:19;37.72;;;26.33;;
21158;SDS011;10737;45.436;4.390;2023-03-01T10:47:23;37.95;;;25.58;;
21158;SDS011;10737;45.436;4.390;2023-03-01T10:52:30;43.90;;;28.75;;
21158;SDS011;10737;45.436;4.390;2023-03-01T10:57:35;43.03;;;30.35;;
21158;SDS011;10737;45.436;4.390;2023-03-01T11:02:41;40.17;;;27.98;;
21158;SDS011;10737;45.436;4.390;2023-03-01T11:07:49;39.88;;;27.73;;
21158;SDS011;10737;45.436;4.390;2023-03-01T11:12:53;37.15;;;25.35;;
21158;SDS011;10737;45.436;4.390;2023-03-01T11:17:57;39.63;;;26.90;;
21158;SDS011;10737;45.436;4.390;2023-03-01T11:23:14;48.80;;;35.20;;
21158;SDS011;10737;45.436;4.390;2023-03-01T11:28:18;41.78;;;25.55;;
21158;SDS011;10737;45.436;4.390;2023-03-01T11:33:24;42.85;;;28.15;;
21158;SDS011;10737;45.436;4.390;2023-03-01T11:38:36;42.88;;;27.90;;
21158;SDS011;10737;45.436;4.390;2023-03-01T11:43:43;39.40;;;27.75;;
21158;SDS011;10737;45.436;4.390;2023-03-01T11:48:50;38.15;;;26.55;;
21158;SDS011;10737;45.436;4.390;2023-03-01T11:54:00;42.67;;;28.10;;
21158;SDS011;10737;45.436;4.390;2023-03-01T11:59:11;41.25;;;27.67;;
21158;SDS011;10737;45.436;4.390;2023-03-01T12:04:29;40.65;;;27.55;;
21158;SDS011;10737;45.436;4.390;2023-03-01T12:09:48;42.08;;;29.00;;
21158;SDS011;10737;45.436;4.390;2023-03-01T12:20:14;37.67;;;26.85;;
21158;SDS011;10737;45.436;4.390;2023-03-01T12:25:24;44.20;;;26.67;;
21158;SDS011;10737;45.436;4.390;2023-03-01T12:30:33;43.40;;;28.98;;
21158;SDS011;10737;45.436;4.390;2023-03-01T12:35:46;40.20;;;27.52;;
21158;SDS011;10737;45.436;4.390;2023-03-01T12:41:04;42.13;;;27.20;;
21158;SDS011;10737;45.436;4.390;2023-03-01T12:46:11;41.55;;;28.90;;
21158;SDS011;10737;45.436;4.390;2023-03-01T12:51:19;42.17;;;28.60;;
21158;SDS011;10737;45.436;4.390;2023-03-01T12:56:25;56.22;;;37.20;;
21158;SDS011;10737;45.436;4.390;2023-03-01T13:01:32;38.85;;;27.45;;
21158;SDS011;10737;45.436;4.390;2023-03-01T13:06:39;53.03;;;33.30;;
21158;SDS011;10737;45.436;4.390;2023-03-01T13:11:46;46.22;;;29.33;;
21158;SDS011;10737;45.436;4.390;2023-03-01T13:16:49;43.40;;;28.40;;
21158;SDS011;10737;45.436;4.390;2023-03-01T13:21:53;41.33;;;28.05;;
21158;SDS011;10737;45.436;4.390;2023-03-01T13:27:18;39.75;;;26.70;;
21158;SDS011;10737;45.436;4.390;2023-03-01T13:32:24;51.50;;;32.33;;
21158;SDS011;10737;45.436;4.390;2023-03-01T13:37:43;42.55;;;28.02;;
21158;SDS011;10737;45.436;4.390;2023-03-01T13:42:48;41.65;;;27.45;;
21158;SDS011;10737;45.436;4.390;2023-03-01T13:48:08;43.15;;;28.85;;
21158;SDS011;10737;45.436;4.390;2023-03-01T13:53:13;50.58;;;28.70;;
21158;SDS011;10737;45.436;4.390;2023-03-01T13:58:21;45.35;;;27.88;;
21158;SDS011;10737;45.436;4.390;2023-03-01T14:03:25;41.55;;;28.40;;
21158;SDS011;10737;45.436;4.390;2023-03-01T14:08:29;41.55;;;28.77;;
21158;SDS011;10737;45.436;4.390;2023-03-01T14:13:38;45.95;;;30.50;;
21158;SDS011;10737;45.436;4.390;2023-03-01T14:18:44;43.05;;;27.52;;
21158;SDS011;10737;45.436;4.390;2023-03-01T14:23:50;45.65;;;28.52;;
21158;SDS011;10737;45.436;4.390;2023-03-01T14:28:55;44.25;;;28.77;;
21158;SDS011;10737;45.436;4.390;2023-03-01T14:33:58;43.03;;;28.63;;
21158;SDS011;10737;45.436;4.390;2023-03-01T14:39:15;41.03;;;28.77;;
21158;SDS011;10737;45.436;4.390;2023-03-01T14:44:21;45.00;;;29.25;;
21158;SDS011;10737;45.436;4.390;2023-03-01T14:49:27;43.90;;;28.98;;
21158;SDS011;10737;45.436;4.390;2023-03-01T14:54:32;44.40;;;27.92;;
21158;SDS011;10737;45.436;4.390;2023-03-01T14:59:40;42.28;;;28.35;;
21158;SDS011;10737;45.436;4.390;2023-03-01T15:04:45;39.85;;;29.10;;
21158;SDS011;10737;45.436;4.390;2023-03-01T15:09:49;39.08;;;26.88;;
21158;SDS011;10737;45.436;4.390;2023-03-01T15:14:54;41.00;;;27.98;;
21158;SDS011;10737;45.436;4.390;2023-03-01T15:20:05;36.08;;;25.05;;
21158;SDS011;10737;45.436;4.390;2023-03-01T15:25:13;39.47;;;28.02;;
21158;SDS011;10737;45.436;4.390;2023-03-01T15:30:19;42.83;;;28.52;;
21158;SDS011;10737;45.436;4.390;2023-03-01T15:35:34;41.83;;;26.70;;
21158;SDS011;10737;45.436;4.390;2023-03-01T15:40:48;37.20;;;26.00;;
21158;SDS011;10737;45.436;4.390;2023-03-01T15:45:56;43.78;;;30.23;;
21158;SDS011;10737;45.436;4.390;2023-03-01T15:50:59;47.05;;;29.75;;
21158;SDS011;10737;45.436;4.390;2023-03-01T15:56:03;40.00;;;27.13;;
21158;SDS011;10737;45.436;4.390;2023-03-01T16:01:12;39.72;;;27.40;;
21158;SDS011;10737;45.436;4.390;2023-03-01T16:06:15;40.05;;;26.45;;
21158;SDS011;10737;45.436;4.390;2023-03-01T16:11:19;48.38;;;30.40;;
21158;SDS011;10737;45.436;4.390;2023-03-01T16:16:24;43.90;;;27.23;;
21158;SDS011;10737;45.436;4.390;2023-03-01T16:21:27;41.75;;;26.42;;
21158;SDS011;10737;45.436;4.390;2023-03-01T16:26:30;38.72;;;27.70;;
21158;SDS011;10737;45.436;4.390;2023-03-01T16:31:35;41.97;;;27.30;;
21158;SDS011;10737;45.436;4.390;2023-03-01T16:36:38;41.45;;;28.45;;
21158;SDS011;10737;45.436;4.390;2023-03-01T16:41:42;38.90;;;28.23;;
21158;SDS011;10737;45.436;4.390;2023-03-01T16:46:47;45.17;;;30.77;;
21158;SDS011;10737;45.436;4.390;2023-03-01T16:51:50;40.05;;;27.80;;
21158;SDS011;10737;45.436;4.390;2023-03-01T16:56:55;42.97;;;28.55;;
21158;SDS011;10737;45.436;4.390;2023-03-01T17:02:01;36.22;;;26.25;;
21158;SDS011;10737;45.436;4.390;2023-03-01T17:07:04;40.40;;;26.88;;
21158;SDS011;10737;45.436;4.390;2023-03-01T17:12:07;46.78;;;27.52;;
21158;SDS011;10737;45.436;4.390;2023-03-01T17:17:11;40.95;;;28.27;;
21158;SDS011;10737;45.436;4.390;2023-03-01T17:22:15;49.20;;;32.03;;
21158;SDS011;10737;45.436;4.390;2023-03-01T17:27:18;38.83;;;26.83;;
21158;SDS011;10737;45.436;4.390;2023-03-01T17:32:23;40.22;;;25.38;;
21158;SDS011;10737;45.436;4.390;2023-03-01T17:37:26;46.55;;;31.33;;
21158;SDS011;10737;45.436;4.390;2023-03-01T17:42:29;59.53;;;33.20;;
21158;SDS011;10737;45.436;4.390;2023-03-01T17:47:33;47.20;;;31.42;;
21158;SDS011;10737;45.436;4.390;2023-03-01T17:52:36;39.20;;;27.80;;
21158;SDS011;10737;45.436;4.390;2023-03-01T17:57:40;50.60;;;33.78;;
21158;SDS011;10737;45.436;4.390;2023-03-01T18:02:45;44.83;;;29.45;;
21158;SDS011;10737;45.436;4.390;2023-03-01T18:07:49;51.00;;;34.40;;
21158;SDS011;10737;45.436;4.390;2023-03-01T18:12:52;43.10;;;28.52;;
21158;SDS011;10737;45.436;4.390;2023-03-01T18:17:57;42.83;;;29.50;;
21158;SDS011;10737;45.436;4.390;2023-03-01T18:23:00;53.58;;;33.00;;
21158;SDS011;10737;45.436;4.390;2023-03-01T18:28:03;61.00;;;42.03;;
21158;SDS011;10737;45.436;4.390;2023-03-01T18:33:08;47.15;;;28.95;;
21158;SDS011;10737;45.436;4.390;2023-03-01T18:38:11;46.53;;;30.42;;
21158;SDS011;10737;45.436;4.390;2023-03-01T18:43:14;45.88;;;29.73;;
21158;SDS011;10737;45.436;4.390;2023-03-01T18:48:19;41.70;;;27.95;;
21158;SDS011;10737;45.436;4.390;2023-03-01T18:53:22;74.55;;;45.20;;
21158;SDS011;10737;45.436;4.390;2023-03-01T18:58:25;62.83;;;40.20;;
21158;SDS011;10737;45.436;4.390;2023-03-01T19:03:29;67.25;;;47.53;;
21158;SDS011;10737;45.436;4.390;2023-03-01T19:08:33;42.28;;;28.90;;
21158;SDS011;10737;45.436;4.390;2023-03-01T19:13:36;47.60;;;32.85;;
21158;SDS011;10737;45.436;4.390;2023-03-01T19:18:42;43.08;;;29.73;;
21158;SDS011;10737;45.436;4.390;2023-03-01T19:23:51;47.88;;;32.88;;
21158;SDS011;10737;45.436;4.390;2023-03-01T19:28:54;67.35;;;42.45;;
21158;SDS011;10737;45.436;4.390;2023-03-01T19:33:59;49.40;;;32.42;;
21158;SDS011;10737;45.436;4.390;2023-03-01T19:39:12;49.13;;;35.17;;
21158;SDS011;10737;45.436;4.390;2023-03-01T19:44:15;50.63;;;35.25;;
21158;SDS011;10737;45.436;4.390;2023-03-01T19:49:19;47.30;;;31.95;;
21158;SDS011;10737;45.436;4.390;2023-03-01T19:54:22;41.25;;;30.17;;
21158;SDS011;10737;45.436;4.390;2023-03-01T19:59:26;65.50;;;43.75;;
21158;SDS011;10737;45.436;4.390;2023-03-01T20:04:30;49.92;;;32.10;;
21158;SDS011;10737;45.436;4.390;2023-03-01T20:09:33;54.25;;;34.10;;
21158;SDS011;10737;45.436;4.390;2023-03-01T20:14:37;45.20;;;30.58;;
21158;SDS011;10737;45.436;4.390;2023-03-01T20:19:42;47.17;;;32.13;;
21158;SDS011;10737;45.436;4.390;2023-03-01T20:24:45;46.50;;;30.98;;
21158;SDS011;10737;45.436;4.390;2023-03-01T20:29:48;42.08;;;28.17;;
21158;SDS011;10737;45.436;4.390;2023-03-01T20:34:53;41.83;;;26.85;;
21158;SDS011;10737;45.436;4.390;2023-03-01T20:39:56;48.40;;;31.50;;
21158;SDS011;10737;45.436;4.390;2023-03-01T20:44:59;50.65;;;33.53;;
21158;SDS011;10737;45.436;4.390;2023-03-01T20:50:04;52.85;;;34.58;;
21158;SDS011;10737;45.436;4.390;2023-03-01T20:55:08;50.33;;;34.75;;
21158;SDS011;10737;45.436;4.390;2023-03-01T21:00:11;46.92;;;31.67;;
21158;SDS011;10737;45.436;4.390;2023-03-01T21:05:16;48.90;;;31.83;;
21158;SDS011;10737;45.436;4.390;2023-03-01T21:10:20;85.80;;;51.72;;
21158;SDS011;10737;45.436;4.390;2023-03-01T21:15:23;72.35;;;45.95;;
21158;SDS011;10737;45.436;4.390;2023-03-01T21:20:31;93.07;;;55.00;;
21158;SDS011;10737;45.436;4.390;2023-03-01T21:25:34;62.60;;;38.45;;
21158;SDS011;10737;45.436;4.390;2023-03-01T21:30:37;45.22;;;29.60;;
21158;SDS011;10737;45.436;4.390;2023-03-01T21:35:42;72.50;;;46.15;;
21158;SDS011;10737;45.436;4.390;2023-03-01T21:40:45;54.63;;;33.95;;
21158;SDS011;10737;45.436;4.390;2023-03-01T21:45:49;49.42;;;32.53;;
21158;SDS011;10737;45.436;4.390;2023-03-01T21:50:57;43.42;;;30.15;;
21158;SDS011;10737;45.436;4.390;2023-03-01T21:56:00;56.50;;;36.55;;
21158;SDS011;10737;45.436;4.390;2023-03-01T22:01:07;54.22;;;35.13;;
21158;SDS011;10737;45.436;4.390;2023-03-01T22:06:12;69.03;;;45.30;;
21158;SDS011;10737;45.436;4.390;2023-03-01T22:11:20;50.15;;;32.65;;
21158;SDS011;10737;45.436;4.390;2023-03-01T22:16:24;81.78;;;51.55;;
21158;SDS011;10737;45.436;4.390;2023-03-01T22:21:29;55.53;;;35.70;;
21158;SDS011;10737;45.436;4.390;2023-03-01T22:26:33;46.38;;;30.40;;
21158;SDS011;10737;45.436;4.390;2023-03-01T22:31:36;45.42;;;30.65;;
21158;SDS011;10737;45.436;4.390;2023-03-01T22:36:41;44.42;;;29.95;;
21158;SDS011;10737;45.436;4.390;2023-03-01T22:41:45;52.63;;;35.78;;
21158;SDS011;10737;45.436;4.390;2023-03-01T22:46:48;56.33;;;35.30;;
21158;SDS011;10737;45.436;4.390;2023-03-01T22:51:53;44.78;;;29.35;;
21158;SDS011;10737;45.436;4.390;2023-03-01T22:56:56;47.13;;;28.98;;
21158;SDS011;10737;45.436;4.390;2023-03-01T23:01:59;53.58;;;34.22;;
21158;SDS011;10737;45.436;4.390;2023-03-01T23:07:04;93.13;;;58.03;;
21158;SDS011;10737;45.436;4.390;2023-03-01T23:12:07;55.53;;;34.22;;
21158;SDS011;10737;45.436;4.390;2023-03-01T23:17:11;50.72;;;30.38;;
21158;SDS011;10737;45.436;4.390;2023-03-01T23:22:16;42.28;;;28.98;;
21158;SDS011;10737;45.436;4.390;2023-03-01T23:27:19;42.72;;;29.88;;
21158;SDS011;10737;45.436;4.390;2023-03-01T23:32:23;53.53;;;34.05;;
21158;SDS011;10737;45.436;4.390;2023-03-01T23:37:29;60.20;;;40.03;;
21158;SDS011;10737;45.436;4.390;2023-03-01T23:42:33;43.08;;;27.88;;
21158;SDS011;10737;45.436;4.390;2023-03-01T23:47:36;44.17;;;29.13;;
21158;SDS011;10737;45.436;4.390;2023-03-01T23:52:41;47.75;;;30.13;;
21158;SDS011;10737;45.436;4.390;2023-03-01T23:57:44;45.53;;;31.45;;
